Time;durP1;ratioP1;P1;durP2;ratioP2;P2;SDS_P1;SDS_P2;PMS_P1;PMS_P2;Temp;Humidity;BMP_temperature;BMP_pressure;BME280_temperature;BME280_humidity;BME280_pressure;Samples;Min_cycle;Max_cycle;Signal;HPM_P1;HPM_P2
2022/11/07 00:01:49;;;;;;;;;;;13.50;73.00;;;;;;4927704;29;19926;-82
2022/11/07 00:04:15;;;;;;;;;;;13.50;73.00;;;;;;4935816;29;19953;-83
2022/11/07 00:06:43;;;;;;;;;;;13.50;73.00;;;;;;4947639;28;20279;-82
2022/11/07 00:09:09;;;;;;;;;;;13.50;73.00;;;;;;4931776;29;20001;-84
2022/11/07 00:11:35;;;;;;;;;;;13.50;73.00;;;;;;4966679;28;20009;-82
2022/11/07 00:14:00;;;;;;;;;;;13.50;73.60;;;;;;4951035;29;20371;-81
2022/11/07 00:16:27;;;;;;;;;;;13.50;73.00;;;;;;4934366;28;20354;-82
2022/11/07 00:18:53;;;;;;;;;;;13.50;73.00;;;;;;4949166;28;19966;-82
2022/11/07 00:21:19;;;;;;;;;;;13.50;73.00;;;;;;4953102;29;19914;-81
2022/11/07 00:23:45;;;;;;;;;;;13.50;73.00;;;;;;4952951;28;19915;-81
2022/11/07 00:26:11;;;;;;;;;;;13.50;73.00;;;;;;4937080;29;19927;-81
2022/11/07 00:28:38;;;;;;;;;;;13.50;73.60;;;;;;4953016;29;19918;-81
2022/11/07 00:31:05;;;;;;;;;;;13.50;73.00;;;;;;4952299;28;19914;-83
2022/11/07 00:33:30;;;;;;;;;;;13.50;73.00;;;;;;4952535;29;19964;-82
2022/11/07 00:35:56;;;;;;;;;;;13.50;73.00;;;;;;4953116;29;19941;-82
2022/11/07 00:38:21;;;;;;;;;;;13.50;73.00;;;;;;4929848;29;19986;-82
2022/11/07 00:40:54;;;;;;;;;;;13.50;73.00;;;;;;4951211;28;19914;-82
2022/11/07 00:43:20;;;;;;;;;;;13.50;73.00;;;;;;4934806;29;19978;-82
2022/11/07 00:45:46;;;;;;;;;;;13.50;73.00;;;;;;4935872;29;19949;-82
2022/11/07 00:48:11;;;;;;;;;;;13.50;73.00;;;;;;4936038;29;19919;-82
2022/11/07 00:50:37;;;;;;;;;;;13.50;73.00;;;;;;4952321;28;19918;-82
2022/11/07 00:53:02;;;;;;;;;;;13.50;73.00;;;;;;4936484;29;19922;-81
2022/11/07 00:55:30;;;;;;;;;;;13.50;73.00;;;;;;4951614;29;19919;-81
2022/11/07 00:57:56;;;;;;;;;;;13.50;73.00;;;;;;4949374;29;20018;-81
2022/11/07 01:00:21;;;;;;;;;;;13.50;73.00;;;;;;4948866;28;20001;-83
2022/11/07 01:05:09;;;;;;;;;;;13.50;73.00;;;;;;4949683;28;19985;-82
2022/11/07 01:05:32;;;;;;;;;;;13.50;73.00;;;;;;4963977;28;19954;-81
2022/11/07 01:07:58;;;;;;;;;;;13.50;73.00;;;;;;4920759;29;19952;-83
2022/11/07 01:10:24;;;;;;;;;;;13.50;73.00;;;;;;4936565;29;19980;-82
2022/11/07 01:12:49;;;;;;;;;;;13.50;73.00;;;;;;4936051;29;20339;-82
2022/11/07 01:15:15;;;;;;;;;;;13.50;73.00;;;;;;4936072;29;20288;-82
2022/11/07 01:17:41;;;;;;;;;;;13.50;73.00;;;;;;4919752;29;19931;-81
2022/11/07 01:20:07;;;;;;;;;;;13.50;73.00;;;;;;4936016;29;19933;-82
2022/11/07 01:22:32;;;;;;;;;;;13.60;73.10;;;;;;4946222;29;19921;-82
2022/11/07 01:24:58;;;;;;;;;;;13.50;73.00;;;;;;4936397;29;19918;-82
2022/11/07 01:27:23;;;;;;;;;;;13.60;73.00;;;;;;4935605;29;19941;-83
2022/11/07 01:29:49;;;;;;;;;;;13.50;73.00;;;;;;4919907;29;19918;-82
2022/11/07 01:32:15;;;;;;;;;;;13.50;73.00;;;;;;4933195;29;19925;-82
2022/11/07 01:34:40;;;;;;;;;;;13.60;73.00;;;;;;4951568;28;19922;-83
2022/11/07 01:37:06;;;;;;;;;;;13.50;73.00;;;;;;4933545;29;19926;-83
2022/11/07 01:39:32;;;;;;;;;;;13.60;73.10;;;;;;4952492;29;20489;-82
2022/11/07 01:41:58;;;;;;;;;;;13.60;73.10;;;;;;4952238;28;20359;-81
2022/11/07 01:44:24;;;;;;;;;;;13.60;73.10;;;;;;4945697;28;19923;-81
2022/11/07 01:46:51;;;;;;;;;;;13.50;73.00;;;;;;4947048;29;19915;-82
2022/11/07 01:49:35;;;;;;;;;;;13.50;73.00;;;;;;4949534;28;19931;-83
2022/11/07 01:52:00;;;;;;;;;;;13.60;73.10;;;;;;4950442;28;19930;-82
2022/11/07 01:54:28;;;;;;;;;;;13.50;73.00;;;;;;4953894;29;19918;-82
2022/11/07 01:56:55;;;;;;;;;;;13.50;73.10;;;;;;4952478;28;19922;-83
2022/11/07 01:59:22;;;;;;;;;;;13.60;73.10;;;;;;4947474;28;20297;-82
2022/11/07 02:01:48;;;;;;;;;;;13.50;73.10;;;;;;4951850;29;19922;-81
2022/11/07 02:04:15;;;;;;;;;;;13.50;73.10;;;;;;4947508;28;19915;-81
2022/11/07 02:06:43;;;;;;;;;;;13.50;73.10;;;;;;4955258;29;19918;-81
2022/11/07 02:09:09;;;;;;;;;;;13.60;73.10;;;;;;4945825;29;19914;-83
2022/11/07 02:11:35;;;;;;;;;;;13.50;73.10;;;;;;4940573;29;20009;-81
2022/11/07 02:14:01;;;;;;;;;;;13.60;73.10;;;;;;4955174;29;19958;-82
2022/11/07 02:16:27;;;;;;;;;;;13.50;73.10;;;;;;4955434;29;19957;-82
2022/11/07 02:18:53;;;;;;;;;;;13.50;73.10;;;;;;4955346;28;20010;-82
2022/11/07 02:21:28;;;;;;;;;;;13.50;73.10;;;;;;4952043;29;19954;-82
2022/11/07 02:23:58;;;;;;;;;;;13.50;73.10;;;;;;4959903;28;19915;-83
2022/11/07 02:26:25;;;;;;;;;;;13.50;73.10;;;;;;4950462;28;19973;-83
2022/11/07 02:28:51;;;;;;;;;;;13.60;73.10;;;;;;4946989;29;19970;-82
2022/11/07 02:31:17;;;;;;;;;;;13.60;73.20;;;;;;4953336;28;19914;-83
2022/11/07 02:33:43;;;;;;;;;;;13.50;73.10;;;;;;4936466;28;19922;-82
2022/11/07 02:36:12;;;;;;;;;;;13.60;73.10;;;;;;4947266;28;20010;-82
2022/11/07 02:38:38;;;;;;;;;;;13.50;73.10;;;;;;4953798;28;19961;-82
2022/11/07 02:41:05;;;;;;;;;;;13.60;73.10;;;;;;4943644;28;20375;-82
2022/11/07 02:43:32;;;;;;;;;;;13.50;73.10;;;;;;4954611;29;19919;-81
2022/11/07 02:45:59;;;;;;;;;;;13.60;73.20;;;;;;4946003;29;19954;-82
2022/11/07 02:48:32;;;;;;;;;;;13.50;73.10;;;;;;4935631;29;20404;-82
2022/11/07 02:50:58;;;;;;;;;;;13.50;73.10;;;;;;4952946;29;20006;-83
2022/11/07 02:53:23;;;;;;;;;;;13.60;73.10;;;;;;4950954;28;19918;-82
2022/11/07 02:55:49;;;;;;;;;;;13.60;73.10;;;;;;4943317;29;19915;-81
2022/11/07 02:58:15;;;;;;;;;;;13.50;73.10;;;;;;4936763;28;20039;-82
2022/11/07 03:00:40;;;;;;;;;;;13.50;73.10;;;;;;4953985;28;20013;-82
2022/11/07 03:03:06;;;;;;;;;;;13.60;73.20;;;;;;4937119;29;19921;-86
2022/11/07 03:05:32;;;;;;;;;;;13.50;73.10;;;;;;4953176;28;20376;-81
2022/11/07 03:07:57;;;;;;;;;;;13.50;73.20;;;;;;4947989;29;20360;-82
2022/11/07 03:10:23;;;;;;;;;;;13.50;73.10;;;;;;4935892;29;20001;-81
2022/11/07 03:12:49;;;;;;;;;;;13.50;73.10;;;;;;4954750;28;20013;-81
2022/11/07 03:15:14;;;;;;;;;;;13.50;73.20;;;;;;4954818;28;20551;-81
2022/11/07 03:17:40;;;;;;;;;;;13.50;73.20;;;;;;4922470;29;20126;-82
2022/11/07 03:20:07;;;;;;;;;;;13.50;73.20;;;;;;4952295;29;20009;-84
2022/11/07 03:22:32;;;;;;;;;;;13.50;73.20;;;;;;4946178;29;19915;-82
2022/11/07 03:24:58;;;;;;;;;;;13.50;73.20;;;;;;4918308;29;19925;-82
2022/11/07 03:27:24;;;;;;;;;;;13.50;73.10;;;;;;4950316;29;19981;-81
2022/11/07 03:29:49;;;;;;;;;;;13.50;73.10;;;;;;4954453;29;20379;-82
2022/11/07 03:32:15;;;;;;;;;;;13.50;73.10;;;;;;4919374;29;19919;-81
2022/11/07 03:34:41;;;;;;;;;;;13.50;73.10;;;;;;4938088;28;19969;-81
2022/11/07 03:37:06;;;;;;;;;;;13.50;73.10;;;;;;4941819;28;19922;-82
2022/11/07 03:39:32;;;;;;;;;;;13.50;73.10;;;;;;4934410;29;20352;-82
2022/11/07 03:41:57;;;;;;;;;;;13.50;73.10;;;;;;4918490;29;20261;-81
2022/11/07 03:44:23;;;;;;;;;;;13.50;73.10;;;;;;4934745;28;19926;-82
2022/11/07 03:46:49;;;;;;;;;;;13.50;73.10;;;;;;4937240;29;19978;-82
2022/11/07 03:49:14;;;;;;;;;;;13.50;73.10;;;;;;4952909;29;19918;-82
2022/11/07 03:51:40;;;;;;;;;;;13.50;73.10;;;;;;4953179;29;20069;-83
2022/11/07 03:54:06;;;;;;;;;;;13.50;73.10;;;;;;4935812;29;19961;-81
2022/11/07 03:56:32;;;;;;;;;;;13.60;73.20;;;;;;4935891;28;20271;-81
2022/11/07 03:58:58;;;;;;;;;;;13.50;73.10;;;;;;4937199;29;19918;-81
2022/11/07 04:01:23;;;;;;;;;;;13.50;73.10;;;;;;4954434;28;19917;-81
2022/11/07 04:03:49;;;;;;;;;;;13.50;73.10;;;;;;4953190;28;19915;-82
2022/11/07 04:06:15;;;;;;;;;;;13.50;73.10;;;;;;4952803;29;19966;-82
2022/11/07 04:08:40;;;;;;;;;;;13.50;73.10;;;;;;4951479;29;20302;-82
2022/11/07 04:11:06;;;;;;;;;;;13.50;73.10;;;;;;4948982;29;19918;-82
2022/11/07 04:19:01;;;;;;;;;;;13.50;73.10;;;;;;4953163;28;19926;-82
2022/11/07 04:21:27;;;;;;;;;;;13.50;73.10;;;;;;4953064;29;19974;-82
2022/11/07 04:23:53;;;;;;;;;;;13.50;73.10;;;;;;4934027;29;19926;-81
2022/11/07 04:29:03;;;;;;;;;;;13.50;73.20;;;;;;4945793;29;19918;-83
2022/11/07 04:31:28;;;;;;;;;;;13.50;73.20;;;;;;4920513;29;20280;-82
2022/11/07 04:33:54;;;;;;;;;;;13.50;73.20;;;;;;4936945;29;19926;-82
2022/11/07 04:36:19;;;;;;;;;;;13.50;73.20;;;;;;4951094;29;19918;-81
2022/11/07 04:38:45;;;;;;;;;;;13.50;73.20;;;;;;4942496;29;19926;-81
2022/11/07 04:41:19;;;;;;;;;;;13.50;73.10;;;;;;4948974;29;19923;-82
2022/11/07 04:43:44;;;;;;;;;;;13.60;73.30;;;;;;4947323;29;19914;-82
2022/11/07 04:46:10;;;;;;;;;;;13.50;73.10;;;;;;4935990;29;19926;-81
2022/11/07 04:48:36;;;;;;;;;;;13.60;73.20;;;;;;4945300;29;19918;-83
2022/11/07 04:51:01;;;;;;;;;;;13.60;73.20;;;;;;4933301;29;19946;-81
2022/11/07 04:53:27;;;;;;;;;;;13.50;73.10;;;;;;4928374;29;19941;-82
2022/11/07 04:55:53;;;;;;;;;;;13.60;73.20;;;;;;4946406;28;19923;-82
2022/11/07 04:58:18;;;;;;;;;;;13.60;73.20;;;;;;4950784;29;19922;-82
2022/11/07 05:00:44;;;;;;;;;;;13.60;73.20;;;;;;4946865;29;20135;-82
2022/11/07 05:03:10;;;;;;;;;;;13.60;73.30;;;;;;4943842;29;20347;-81
2022/11/07 05:05:35;;;;;;;;;;;13.60;73.20;;;;;;4950373;29;19957;-82
2022/11/07 05:08:01;;;;;;;;;;;13.60;73.20;;;;;;4949107;29;20417;-81
2022/11/07 05:10:27;;;;;;;;;;;13.60;73.20;;;;;;4950538;28;19964;-82
2022/11/07 05:12:53;;;;;;;;;;;13.60;73.30;;;;;;4950145;28;19919;-82
2022/11/07 05:15:19;;;;;;;;;;;13.60;73.30;;;;;;4926582;29;19941;-82
2022/11/07 05:17:45;;;;;;;;;;;13.60;73.30;;;;;;4951960;28;20406;-83
2022/11/07 05:20:27;;;;;;;;;;;13.60;73.20;;;;;;4950331;29;20005;-82
2022/11/07 05:23:11;;;;;;;;;;;13.60;73.20;;;;;;4933868;29;19966;-84
2022/11/07 05:25:40;;;;;;;;;;;13.60;73.20;;;;;;4953425;28;19915;-83
2022/11/07 05:28:05;;;;;;;;;;;13.60;73.20;;;;;;4954095;28;19949;-83
2022/11/07 05:30:31;;;;;;;;;;;13.60;73.30;;;;;;4942187;29;19964;-82
2022/11/07 05:32:57;;;;;;;;;;;13.60;73.20;;;;;;4946949;28;19961;-83
2022/11/07 05:35:23;;;;;;;;;;;13.60;73.30;;;;;;4950648;29;20599;-83
2022/11/07 05:37:49;;;;;;;;;;;13.60;73.30;;;;;;4955901;28;20276;-82
2022/11/07 05:40:15;;;;;;;;;;;13.60;73.20;;;;;;4955266;28;19922;-83
2022/11/07 05:42:41;;;;;;;;;;;13.70;73.30;;;;;;4952359;29;19922;-82
2022/11/07 05:45:07;;;;;;;;;;;13.60;73.20;;;;;;4937848;29;19934;-82
2022/11/07 05:47:32;;;;;;;;;;;13.60;73.20;;;;;;4944786;29;19926;-81
2022/11/07 05:49:58;;;;;;;;;;;13.60;73.20;;;;;;4949420;28;20040;-81
2022/11/07 05:52:23;;;;;;;;;;;13.70;73.30;;;;;;4950654;28;20331;-81
2022/11/07 05:54:49;;;;;;;;;;;13.70;73.30;;;;;;4937977;28;20394;-81
2022/11/07 05:57:15;;;;;;;;;;;13.60;73.30;;;;;;4956521;28;20407;-82
2022/11/07 05:59:40;;;;;;;;;;;13.70;73.30;;;;;;4937685;29;20599;-81
2022/11/07 06:02:06;;;;;;;;;;;13.70;73.30;;;;;;4955307;29;20556;-83
2022/11/07 06:04:32;;;;;;;;;;;13.70;73.30;;;;;;4953663;29;19922;-81
2022/11/07 06:06:57;;;;;;;;;;;13.70;73.30;;;;;;4952596;29;19915;-81
2022/11/07 06:09:23;;;;;;;;;;;13.70;73.30;;;;;;4939072;29;19926;-81
2022/11/07 06:11:48;;;;;;;;;;;13.70;73.30;;;;;;4937691;29;19954;-83
2022/11/07 06:14:14;;;;;;;;;;;13.70;73.30;;;;;;4943401;29;20021;-82
2022/11/07 06:16:40;;;;;;;;;;;13.70;73.30;;;;;;4952751;29;19933;-84
2022/11/07 06:19:05;;;;;;;;;;;13.70;73.30;;;;;;4934022;29;19919;-81
2022/11/07 06:21:31;;;;;;;;;;;13.70;73.30;;;;;;4952667;28;19918;-84
2022/11/07 06:23:57;;;;;;;;;;;13.70;73.30;;;;;;4952105;29;19918;-81
2022/11/07 06:26:22;;;;;;;;;;;13.70;73.90;;;;;;4952139;28;19918;-81
2022/11/07 06:28:48;;;;;;;;;;;13.70;73.30;;;;;;4944300;29;20324;-82
2022/11/07 06:31:14;;;;;;;;;;;13.70;73.30;;;;;;4947497;29;19962;-81
2022/11/07 06:33:39;;;;;;;;;;;13.70;73.30;;;;;;4934843;29;19915;-81
2022/11/07 06:36:10;;;;;;;;;;;13.80;73.30;;;;;;4951396;28;19929;-80
2022/11/07 06:38:36;;;;;;;;;;;13.70;73.30;;;;;;4952142;29;20022;-82
2022/11/07 06:41:09;;;;;;;;;;;13.70;73.30;;;;;;4950358;28;20025;-82
2022/11/07 06:43:35;;;;;;;;;;;13.80;73.30;;;;;;4943613;29;20379;-82
2022/11/07 06:46:03;;;;;;;;;;;13.80;73.30;;;;;;4953644;28;19985;-81
2022/11/07 06:48:28;;;;;;;;;;;13.70;73.30;;;;;;4953526;29;19914;-81
2022/11/07 06:50:58;;;;;;;;;;;13.80;73.30;;;;;;4953667;28;19914;-82
2022/11/07 06:53:24;;;;;;;;;;;13.80;73.30;;;;;;4954160;29;19952;-82
2022/11/07 06:55:49;;;;;;;;;;;13.80;73.30;;;;;;4954890;28;20314;-81
2022/11/07 06:58:15;;;;;;;;;;;13.80;73.30;;;;;;4922347;29;19926;-81
2022/11/07 07:00:41;;;;;;;;;;;13.80;73.30;;;;;;4921716;29;19977;-81
2022/11/07 07:03:06;;;;;;;;;;;13.80;73.30;;;;;;4936995;29;19984;-81
2022/11/07 07:05:33;;;;;;;;;;;13.80;73.30;;;;;;4951744;28;19962;-81
2022/11/07 07:07:58;;;;;;;;;;;13.80;73.30;;;;;;4953596;28;19922;-82
2022/11/07 07:10:24;;;;;;;;;;;13.80;73.30;;;;;;4953664;29;19972;-80
2022/11/07 07:12:49;;;;;;;;;;;13.80;73.30;;;;;;4935920;29;19918;-82
2022/11/07 07:15:15;;;;;;;;;;;13.80;73.30;;;;;;4935904;29;19915;-82
2022/11/07 07:17:41;;;;;;;;;;;13.80;73.30;;;;;;4950932;29;19930;-81
2022/11/07 07:20:07;;;;;;;;;;;13.80;73.30;;;;;;4953961;29;19919;-82
2022/11/07 07:22:32;;;;;;;;;;;13.90;73.40;;;;;;4953874;28;20279;-81
2022/11/07 07:24:58;;;;;;;;;;;13.90;73.40;;;;;;4952161;28;19910;-82
2022/11/07 07:27:24;;;;;;;;;;;13.90;73.30;;;;;;4935524;29;19918;-82
2022/11/07 07:29:52;;;;;;;;;;;13.90;73.30;;;;;;4938348;29;19919;-82
2022/11/07 07:32:18;;;;;;;;;;;13.80;73.30;;;;;;4954061;28;20331;-81
2022/11/07 07:34:44;;;;;;;;;;;13.90;73.30;;;;;;4941907;29;20348;-82
2022/11/07 07:37:09;;;;;;;;;;;13.90;73.30;;;;;;4950876;28;20029;-82
2022/11/07 07:39:35;;;;;;;;;;;13.90;73.30;;;;;;4948720;28;19923;-81
2022/11/07 07:42:01;;;;;;;;;;;13.90;73.30;;;;;;4950185;29;19973;-81
2022/11/07 07:44:26;;;;;;;;;;;13.90;73.30;;;;;;4951541;28;20489;-81
2022/11/07 07:46:52;;;;;;;;;;;13.90;73.30;;;;;;4952491;28;19922;-82
2022/11/07 07:49:18;;;;;;;;;;;13.90;73.30;;;;;;4935696;29;19919;-82
2022/11/07 07:51:43;;;;;;;;;;;13.90;73.30;;;;;;4937425;29;19946;-82
2022/11/07 07:54:09;;;;;;;;;;;13.90;73.30;;;;;;4951302;28;19922;-81
2022/11/07 07:56:35;;;;;;;;;;;13.90;73.30;;;;;;4937189;29;19950;-81
2022/11/07 07:59:02;;;;;;;;;;;13.90;73.30;;;;;;4932025;29;20362;-82
2022/11/07 08:01:27;;;;;;;;;;;14.00;73.30;;;;;;4937386;29;19919;-82
2022/11/07 08:03:53;;;;;;;;;;;14.00;73.30;;;;;;4937267;29;19919;-82
2022/11/07 08:06:18;;;;;;;;;;;14.00;73.40;;;;;;4953237;28;19923;-82
2022/11/07 08:08:44;;;;;;;;;;;14.00;73.30;;;;;;4934411;29;19926;-80
2022/11/07 08:11:15;;;;;;;;;;;14.00;73.30;;;;;;4920596;29;19972;-81
2022/11/07 08:13:41;;;;;;;;;;;14.00;73.30;;;;;;4937188;29;19922;-82
2022/11/07 08:16:07;;;;;;;;;;;14.00;73.30;;;;;;4952629;29;19926;-81
2022/11/07 08:18:35;;;;;;;;;;;14.00;73.30;;;;;;4950192;29;19926;-83
2022/11/07 08:21:01;;;;;;;;;;;14.00;73.30;;;;;;4936520;29;19918;-82
2022/11/07 08:23:27;;;;;;;;;;;14.10;73.40;;;;;;4952845;28;20372;-82
2022/11/07 08:25:54;;;;;;;;;;;14.00;73.30;;;;;;4921050;29;19972;-81
2022/11/07 08:28:20;;;;;;;;;;;14.10;73.40;;;;;;4953013;29;19925;-83
2022/11/07 08:30:53;;;;;;;;;;;14.10;73.40;;;;;;4952920;28;19921;-82
2022/11/07 08:33:19;;;;;;;;;;;14.10;73.40;;;;;;4950662;28;20433;-82
2022/11/07 08:35:44;;;;;;;;;;;14.10;73.30;;;;;;4936788;29;20042;-81
2022/11/07 08:38:10;;;;;;;;;;;14.10;73.30;;;;;;4952010;29;19922;-82
2022/11/07 08:40:35;;;;;;;;;;;14.10;73.30;;;;;;4950502;29;20025;-83
2022/11/07 08:43:01;;;;;;;;;;;14.20;73.40;;;;;;4918369;29;19923;-83
2022/11/07 08:45:27;;;;;;;;;;;14.20;73.30;;;;;;4936010;29;19927;-82
2022/11/07 08:47:56;;;;;;;;;;;14.20;73.30;;;;;;4952214;29;19918;-82
2022/11/07 08:50:22;;;;;;;;;;;14.20;73.40;;;;;;4936045;29;19949;-83
2022/11/07 08:52:48;;;;;;;;;;;14.20;73.30;;;;;;4951908;29;19965;-83
2022/11/07 08:55:13;;;;;;;;;;;14.20;73.30;;;;;;4934234;28;19927;-82
2022/11/07 08:57:39;;;;;;;;;;;14.20;73.30;;;;;;4964019;28;20005;-83
2022/11/07 09:00:05;;;;;;;;;;;14.30;73.30;;;;;;4937395;29;20438;-82
2022/11/07 09:02:31;;;;;;;;;;;14.30;73.30;;;;;;4952215;28;19914;-84
2022/11/07 09:04:56;;;;;;;;;;;14.30;73.30;;;;;;4936533;28;20485;-83
2022/11/07 09:07:22;;;;;;;;;;;14.30;73.30;;;;;;4951503;28;20363;-83
2022/11/07 09:09:48;;;;;;;;;;;14.30;73.20;;;;;;4936890;29;19922;-83
2022/11/07 09:12:13;;;;;;;;;;;14.30;73.20;;;;;;4919550;29;19918;-83
2022/11/07 09:14:39;;;;;;;;;;;14.40;73.20;;;;;;4952464;29;19914;-82
2022/11/07 09:17:05;;;;;;;;;;;14.40;73.20;;;;;;4941587;29;20009;-82
2022/11/07 09:19:30;;;;;;;;;;;14.40;73.20;;;;;;4937022;29;19941;-83
2022/11/07 09:21:56;;;;;;;;;;;14.40;73.20;;;;;;4942874;28;19915;-83
2022/11/07 09:24:22;;;;;;;;;;;14.40;73.20;;;;;;4918619;29;19919;-83
2022/11/07 09:26:47;;;;;;;;;;;14.50;73.20;;;;;;4951457;29;19922;-82
2022/11/07 09:29:13;;;;;;;;;;;14.50;73.20;;;;;;4951692;29;20035;-83
2022/11/07 09:31:39;;;;;;;;;;;14.50;73.20;;;;;;4952112;29;20023;-83
2022/11/07 09:34:06;;;;;;;;;;;14.50;73.20;;;;;;4948889;29;20392;-83
2022/11/07 09:36:32;;;;;;;;;;;14.50;73.20;;;;;;4920764;29;19922;-83
2022/11/07 09:38:58;;;;;;;;;;;14.50;73.20;;;;;;4953076;29;20013;-83
2022/11/07 09:41:42;;;;;;;;;;;14.60;73.20;;;;;;4953066;28;19921;-82
2022/11/07 09:44:23;;;;;;;;;;;14.60;73.20;;;;;;4953141;28;20255;-82
2022/11/07 09:46:48;;;;;;;;;;;14.60;73.20;;;;;;4946568;29;19923;-81
2022/11/07 09:49:17;;;;;;;;;;;14.60;73.30;;;;;;4952322;29;20287;-84
2022/11/07 09:51:46;;;;;;;;;;;14.60;73.20;;;;;;4942654;29;19922;-82
2022/11/07 09:54:16;;;;;;;;;;;14.60;73.90;;;;;;4951746;29;19918;-80
2022/11/07 09:56:42;;;;;;;;;;;14.70;73.30;;;;;;4950817;28;19949;-80
2022/11/07 09:59:15;;;;;;;;;;;14.70;73.30;;;;;;4934128;29;20005;-80
2022/11/07 10:01:41;;;;;;;;;;;14.70;73.20;;;;;;4949338;29;19966;-81
2022/11/07 10:04:12;;;;;;;;;;;14.70;73.20;;;;;;4951109;29;19958;-82
2022/11/07 10:06:44;;;;;;;;;;;14.80;73.30;;;;;;4952411;28;19937;-81
2022/11/07 10:09:15;;;;;;;;;;;14.80;73.30;;;;;;4952050;28;19914;-81
2022/11/07 10:11:46;;;;;;;;;;;14.80;73.30;;;;;;4952471;28;19942;-81
2022/11/07 10:14:28;;;;;;;;;;;14.80;73.30;;;;;;4954741;29;20001;-81
2022/11/07 10:16:59;;;;;;;;;;;14.90;73.40;;;;;;4952911;29;20380;-82
2022/11/07 10:19:35;;;;;;;;;;;14.90;73.30;;;;;;4954598;28;19974;-82
2022/11/07 10:22:13;;;;;;;;;;;14.90;73.30;;;;;;4934984;29;20060;-82
2022/11/07 10:24:46;;;;;;;;;;;14.90;73.30;;;;;;4949784;28;19915;-81
2022/11/07 10:27:12;;;;;;;;;;;14.90;73.30;;;;;;4954618;28;19976;-79
2022/11/07 10:29:46;;;;;;;;;;;14.90;73.30;;;;;;4952307;28;19954;-79
2022/11/07 10:32:19;;;;;;;;;;;15.00;73.30;;;;;;4953961;28;20283;-81
2022/11/07 10:35:06;;;;;;;;;;;15.00;73.30;;;;;;4939499;29;19942;-82
2022/11/07 10:37:32;;;;;;;;;;;15.00;73.30;;;;;;4952842;29;19961;-81
2022/11/07 10:39:57;;;;;;;;;;;15.00;73.20;;;;;;4951910;28;20204;-83
2022/11/07 10:42:25;;;;;;;;;;;15.10;73.30;;;;;;4953902;28;19946;-83
2022/11/07 10:44:54;;;;;;;;;;;15.10;73.30;;;;;;4954004;29;20353;-83
2022/11/07 10:47:22;;;;;;;;;;;15.10;73.30;;;;;;4952958;28;19926;-84
2022/11/07 10:49:55;;;;;;;;;;;15.10;73.30;;;;;;4955024;29;20008;-85
2022/11/07 10:52:21;;;;;;;;;;;15.10;73.30;;;;;;4954926;28;20010;-82
2022/11/07 10:54:47;;;;;;;;;;;15.10;73.30;;;;;;4935815;29;19950;-83
2022/11/07 10:57:19;;;;;;;;;;;15.20;73.30;;;;;;4938105;29;20013;-85
2022/11/07 10:59:53;;;;;;;;;;;15.20;73.30;;;;;;4953919;29;19961;-84
2022/11/07 11:02:24;;;;;;;;;;;15.20;73.30;;;;;;4952177;28;19946;-86
2022/11/07 11:04:57;;;;;;;;;;;15.20;73.20;;;;;;4954764;28;19929;-84
2022/11/07 11:07:32;;;;;;;;;;;15.20;73.20;;;;;;4951777;29;20359;-82
2022/11/07 11:09:57;;;;;;;;;;;15.30;73.30;;;;;;4954629;29;20660;-84
2022/11/07 11:12:28;;;;;;;;;;;15.30;73.20;;;;;;4937750;29;20005;-85
2022/11/07 11:15:04;;;;;;;;;;;15.30;73.90;;;;;;4950158;29;19930;-84
2022/11/07 11:17:30;;;;;;;;;;;15.40;73.30;;;;;;4952030;29;20009;-84
2022/11/07 11:19:55;;;;;;;;;;;15.40;73.30;;;;;;4946277;28;20005;-84
2022/11/07 11:22:23;;;;;;;;;;;15.40;73.30;;;;;;4938215;29;19954;-83
2022/11/07 11:25:01;;;;;;;;;;;15.40;73.20;;;;;;4947674;28;19921;-83
2022/11/07 11:27:29;;;;;;;;;;;15.40;73.20;;;;;;4955078;28;19918;-84
2022/11/07 11:30:05;;;;;;;;;;;15.50;73.30;;;;;;4967614;28;19918;-83
2022/11/07 11:32:36;;;;;;;;;;;15.50;73.20;;;;;;4931703;29;20422;-84
2022/11/07 11:35:06;;;;;;;;;;;15.50;73.20;;;;;;4938549;28;19926;-84
2022/11/07 11:37:35;;;;;;;;;;;15.50;73.20;;;;;;4949332;29;20478;-84
2022/11/07 11:40:01;;;;;;;;;;;15.50;73.20;;;;;;4947219;28;20411;-83
2022/11/07 11:42:30;;;;;;;;;;;15.50;73.10;;;;;;4938422;29;20001;-83
2022/11/07 11:44:58;;;;;;;;;;;15.60;73.20;;;;;;4937014;28;19910;-84
2022/11/07 11:47:35;;;;;;;;;;;15.60;73.20;;;;;;4951832;28;20427;-83
2022/11/07 11:50:24;;;;;;;;;;;15.60;73.10;;;;;;4952714;29;20292;-84
2022/11/07 11:52:50;;;;;;;;;;;15.70;73.20;;;;;;4945876;29;19921;-83
2022/11/07 11:55:18;;;;;;;;;;;15.60;73.10;;;;;;4953913;29;20009;-83
2022/11/07 11:57:43;;;;;;;;;;;15.60;73.10;;;;;;4952219;28;19923;-84
2022/11/07 12:00:14;;;;;;;;;;;15.70;73.10;;;;;;4953118;28;19919;-85
2022/11/07 12:02:40;;;;;;;;;;;15.70;73.10;;;;;;4947802;29;19960;-84
2022/11/07 12:05:11;;;;;;;;;;;15.70;73.10;;;;;;4954023;28;20336;-84
2022/11/07 12:07:45;;;;;;;;;;;15.80;73.20;;;;;;4953336;29;19937;-83
2022/11/07 12:10:10;;;;;;;;;;;15.70;73.10;;;;;;4953338;29;19915;-83
2022/11/07 12:12:51;;;;;;;;;;;15.80;73.10;;;;;;4954817;29;19952;-83
2022/11/07 12:15:20;;;;;;;;;;;15.80;73.10;;;;;;4952237;29;19921;-83
2022/11/07 12:17:46;;;;;;;;;;;15.80;73.10;;;;;;4952375;28;19918;-83
2022/11/07 12:20:34;;;;;;;;;;;15.80;73.00;;;;;;4934732;29;19982;-83
2022/11/07 12:23:11;;;;;;;;;;;15.90;73.10;;;;;;4943835;29;19997;-83
2022/11/07 12:25:42;;;;;;;;;;;15.90;73.10;;;;;;4948450;29;19965;-83
2022/11/07 12:28:22;;;;;;;;;;;15.90;73.10;;;;;;4952848;29;19918;-82
2022/11/07 12:30:55;;;;;;;;;;;15.90;73.00;;;;;;4948264;28;19965;-83
2022/11/07 12:33:33;;;;;;;;;;;16.00;73.10;;;;;;4951863;28;20286;-83
2022/11/07 12:36:10;;;;;;;;;;;16.00;73.10;;;;;;4942635;29;19960;-82
2022/11/07 12:38:44;;;;;;;;;;;16.00;73.10;;;;;;4951257;29;19914;-83
2022/11/07 12:41:27;;;;;;;;;;;16.00;73.10;;;;;;4952849;28;19918;-84
2022/11/07 12:43:59;;;;;;;;;;;16.00;73.10;;;;;;4950836;29;19922;-83
2022/11/07 12:46:34;;;;;;;;;;;16.10;73.10;;;;;;4951263;29;20418;-84
2022/11/07 12:49:29;;;;;;;;;;;16.10;73.10;;;;;;4937486;28;19957;-83
2022/11/07 12:51:57;;;;;;;;;;;16.10;73.10;;;;;;4946479;28;19947;-83
2022/11/07 12:54:36;;;;;;;;;;;16.10;73.00;;;;;;4953008;28;19914;-83
2022/11/07 12:57:05;;;;;;;;;;;16.20;73.10;;;;;;4949278;28;20021;-83
2022/11/07 12:59:31;;;;;;;;;;;16.10;73.00;;;;;;4949960;29;19918;-83
2022/11/07 13:01:59;;;;;;;;;;;16.20;73.00;;;;;;4965010;28;19998;-82
2022/11/07 13:04:25;;;;;;;;;;;16.20;73.00;;;;;;4948234;29;19923;-82
2022/11/07 13:06:53;;;;;;;;;;;16.30;73.10;;;;;;4934045;29;19919;-81
2022/11/07 13:09:42;;;;;;;;;;;16.20;73.00;;;;;;4947250;29;19918;-83
2022/11/07 13:12:07;;;;;;;;;;;16.30;73.00;;;;;;4949900;29;19921;-83
2022/11/07 13:14:36;;;;;;;;;;;16.30;73.00;;;;;;4952540;28;20351;-82
2022/11/07 13:17:09;;;;;;;;;;;16.30;73.00;;;;;;4950923;29;19954;-81
2022/11/07 13:19:39;;;;;;;;;;;16.30;73.00;;;;;;4951697;28;19925;-81
2022/11/07 13:22:23;;;;;;;;;;;16.30;72.90;;;;;;4951529;28;19914;-83
2022/11/07 13:24:53;;;;;;;;;;;16.40;73.00;;;;;;4952205;28;19922;-83
2022/11/07 13:27:21;;;;;;;;;;;16.40;73.00;;;;;;4949796;28;19915;-82
2022/11/07 13:29:46;;;;;;;;;;;16.40;72.90;;;;;;4951316;28;19923;-82
2022/11/07 13:32:13;;;;;;;;;;;16.40;72.90;;;;;;4935542;29;19926;-83
2022/11/07 13:34:48;;;;;;;;;;;16.40;72.90;;;;;;4952312;29;19918;-82
2022/11/07 13:37:40;;;;;;;;;;;16.50;73.00;;;;;;4951840;28;19914;-82
2022/11/07 13:40:06;;;;;;;;;;;16.50;73.00;;;;;;4946350;29;19949;-84
2022/11/07 13:42:32;;;;;;;;;;;16.50;72.90;;;;;;4952431;29;19919;-80
2022/11/07 13:45:05;;;;;;;;;;;16.50;72.90;;;;;;4951985;28;20009;-83
2022/11/07 13:47:34;;;;;;;;;;;16.50;72.90;;;;;;4952306;29;19923;-84
2022/11/07 13:50:02;;;;;;;;;;;16.50;72.90;;;;;;4955655;28;20541;-83
2022/11/07 13:52:33;;;;;;;;;;;16.50;72.90;;;;;;4955423;28;19925;-83
2022/11/07 13:55:11;;;;;;;;;;;16.60;72.90;;;;;;4953019;29;19997;-83
2022/11/07 13:57:39;;;;;;;;;;;16.60;72.90;;;;;;4953004;28;20660;-83
2022/11/07 14:00:12;;;;;;;;;;;16.60;72.90;;;;;;4954021;29;19919;-83
2022/11/07 14:02:38;;;;;;;;;;;16.60;72.90;;;;;;4955585;29;19914;-84
2022/11/07 14:05:06;;;;;;;;;;;16.60;72.90;;;;;;4955276;28;20344;-84
2022/11/07 14:07:32;;;;;;;;;;;16.70;72.90;;;;;;4952244;28;20295;-83
2022/11/07 14:09:58;;;;;;;;;;;16.60;72.90;;;;;;4954941;28;19942;-84
2022/11/07 14:12:24;;;;;;;;;;;16.60;72.90;;;;;;4946633;29;20387;-85
2022/11/07 14:14:52;;;;;;;;;;;16.70;72.90;;;;;;4940777;28;19915;-82
2022/11/07 14:17:18;;;;;;;;;;;16.70;72.90;;;;;;4955617;29;20386;-82
2022/11/07 14:19:44;;;;;;;;;;;16.70;72.90;;;;;;4947165;29;20375;-82
2022/11/07 14:22:23;;;;;;;;;;;16.70;72.90;;;;;;4954594;28;19910;-82
2022/11/07 14:24:50;;;;;;;;;;;16.70;72.90;;;;;;4949134;28;19970;-81
2022/11/07 14:27:16;;;;;;;;;;;16.70;72.90;;;;;;4944041;29;19966;-82
2022/11/07 14:30:02;;;;;;;;;;;16.70;72.90;;;;;;4944273;29;19918;-83